createdAt,value
2017-02-24T00:00:00.563Z,890.56
2017-02-24T00:00:04.899Z,890.55
2017-02-24T00:00:09.251Z,890.52
2017-02-24T00:00:13.756Z,890.54
2017-02-24T00:00:18.462Z,890.51
2017-02-24T00:00:23.132Z,890.54
2017-02-24T00:00:27.782Z,890.52
2017-02-24T00:00:32.433Z,890.58
2017-02-24T00:00:37.092Z,890.51
2017-02-24T00:00:41.729Z,890.52
2017-02-24T00:00:46.387Z,890.54
2017-02-24T00:00:51.036Z,890.52
2017-02-24T00:00:55.666Z,890.56
2017-02-24T00:01:00.292Z,890.53
2017-02-24T00:01:04.955Z,890.53
2017-02-24T00:01:09.601Z,890.54
2017-02-24T00:01:13.948Z,890.54
2017-02-24T00:01:18.584Z,890.51
2017-02-24T00:01:23.231Z,890.54
2017-02-24T00:01:27.879Z,890.54
2017-02-24T00:01:32.520Z,890.53
2017-02-24T00:01:37.169Z,890.55
2017-02-24T00:01:41.843Z,890.54
2017-02-24T00:01:46.488Z,890.54
2017-02-24T00:01:51.123Z,890.54
2017-02-24T00:01:55.745Z,890.5
2017-02-24T00:02:00.401Z,890.52
2017-02-24T00:02:05.052Z,890.52
2017-02-24T00:02:09.554Z,890.51
2017-02-24T00:02:14.060Z,890.53
2017-02-24T00:02:18.702Z,890.49
2017-02-24T00:02:23.344Z,890.54
2017-02-24T00:02:27.985Z,890.55
2017-02-24T00:02:32.618Z,890.53
2017-02-24T00:02:37.248Z,890.52
2017-02-24T00:02:41.897Z,890.54
2017-02-24T00:02:46.527Z,890.51
2017-02-24T00:02:51.188Z,890.53
2017-02-24T00:02:55.723Z,890.53
2017-02-24T00:03:00.372Z,890.5
2017-02-24T00:03:05.363Z,890.52
2017-02-24T00:03:10.012Z,890.53
2017-02-24T00:03:14.517Z,890.52
2017-02-24T00:03:19.161Z,890.48
2017-02-24T00:03:23.675Z,890.52
2017-02-24T00:03:28.327Z,890.49
2017-02-24T00:03:32.965Z,890.5
2017-02-24T00:03:37.597Z,890.47
2017-02-24T00:03:42.080Z,890.45
2017-02-24T00:03:46.740Z,890.5
2017-02-24T00:03:51.410Z,890.5
2017-02-24T00:03:56.061Z,890.5
2017-02-24T00:04:00.708Z,890.49
2017-02-24T00:04:05.204Z,890.47
2017-02-24T00:04:09.705Z,890.42
2017-02-24T00:04:14.369Z,890.5
2017-02-24T00:04:18.727Z,890.49
2017-02-24T00:04:23.371Z,890.47
2017-02-24T00:04:28.031Z,890.47
2017-02-24T00:04:32.673Z,890.49
2017-02-24T00:04:37.319Z,890.47
2017-02-24T00:04:41.731Z,890.51
2017-02-24T00:04:46.392Z,890.45
2017-02-24T00:04:51.026Z,890.44
2017-02-24T00:04:55.680Z,890.47
2017-02-24T00:05:00.301Z,890.49
2017-02-24T00:05:05.084Z,890.44
2017-02-24T00:05:09.731Z,890.47
2017-02-24T00:05:14.080Z,890.49
2017-02-24T00:05:18.746Z,890.45
2017-02-24T00:05:23.387Z,890.44
2017-02-24T00:05:28.034Z,890.46
2017-02-24T00:05:32.541Z,890.47
2017-02-24T00:05:37.189Z,890.47
2017-02-24T00:05:41.672Z,890.45
2017-02-24T00:05:46.316Z,890.49
2017-02-24T00:05:50.964Z,890.46
2017-02-24T00:05:55.598Z,890.42
2017-02-24T00:06:00.240Z,890.45
2017-02-24T00:06:04.891Z,890.44
2017-02-24T00:06:09.108Z,890.47
2017-02-24T00:06:13.625Z,890.48
2017-02-24T00:06:18.141Z,890.49
2017-02-24T00:06:22.763Z,890.46
2017-02-24T00:06:27.263Z,890.47
2017-02-24T00:06:31.919Z,890.47
2017-02-24T00:06:36.405Z,890.46
2017-02-24T00:06:40.779Z,890.46
2017-02-24T00:06:45.477Z,890.45
2017-02-24T00:06:50.126Z,890.45
2017-02-24T00:06:54.763Z,890.45
2017-02-24T00:06:59.393Z,890.47
2017-02-24T00:07:04.119Z,890.42
2017-02-24T00:07:08.756Z,890.42
2017-02-24T00:07:13.259Z,890.43
2017-02-24T00:07:17.908Z,890.47
2017-02-24T00:07:22.535Z,890.41
2017-02-24T00:07:27.191Z,890.42
2017-02-24T00:07:31.549Z,890.44
2017-02-24T00:07:36.195Z,890.45
2017-02-24T00:07:40.700Z,890.43
2017-02-24T00:07:45.339Z,890.45
2017-02-24T00:07:49.981Z,890.46
2017-02-24T00:07:54.643Z,890.45
2017-02-24T00:07:59.294Z,890.46
2017-02-24T00:08:04.027Z,890.44
2017-02-24T00:08:08.542Z,890.45
2017-02-24T00:08:12.930Z,890.45
2017-02-24T00:08:17.563Z,890.4
2017-02-24T00:08:22.185Z,890.42
2017-02-24T00:08:26.836Z,890.44
2017-02-24T00:08:31.209Z,890.41
2017-02-24T00:08:35.876Z,890.44
2017-02-24T00:08:40.398Z,890.43
2017-02-24T00:08:45.034Z,890.41
2017-02-24T00:08:49.668Z,890.42
2017-02-24T00:08:54.333Z,890.42
2017-02-24T00:08:58.989Z,890.38
2017-02-24T00:09:03.598Z,890.41
2017-02-24T00:09:08.114Z,890.43
2017-02-24T00:09:12.621Z,890.41
2017-02-24T00:09:17.273Z,890.38
2017-02-24T00:09:21.912Z,890.38
2017-02-24T00:09:26.417Z,890.36
2017-02-24T00:09:31.072Z,890.4
2017-02-24T00:09:35.759Z,890.4
2017-02-24T00:09:40.258Z,890.35
2017-02-24T00:09:44.760Z,890.35
2017-02-24T00:09:49.423Z,890.33
2017-02-24T00:09:54.071Z,890.38
2017-02-24T00:09:58.581Z,890.39
2017-02-24T00:10:03.373Z,890.39
2017-02-24T00:10:07.722Z,890.37
2017-02-24T00:10:12.066Z,890.38
2017-02-24T00:10:16.412Z,890.41
2017-02-24T00:10:21.063Z,890.39
2017-02-24T00:10:25.701Z,890.38
2017-02-24T00:10:30.338Z,890.34
2017-02-24T00:10:34.989Z,890.37
2017-02-24T00:10:39.627Z,890.34
2017-02-24T00:10:44.271Z,890.4
2017-02-24T00:10:48.913Z,890.35
2017-02-24T00:10:53.544Z,890.37
2017-02-24T00:10:58.179Z,890.32
2017-02-24T00:11:02.833Z,890.31
2017-02-24T00:11:07.324Z,890.3
2017-02-24T00:11:11.967Z,890.36
2017-02-24T00:11:16.314Z,890.34
2017-02-24T00:11:20.972Z,890.38
2017-02-24T00:11:25.622Z,890.34
2017-02-24T00:11:30.271Z,890.33
2017-02-24T00:11:34.924Z,890.32
2017-02-24T00:11:39.600Z,890.36
2017-02-24T00:11:44.139Z,890.32
2017-02-24T00:11:48.790Z,890.34
2017-02-24T00:11:53.418Z,890.34
2017-02-24T00:11:58.074Z,890.3
2017-02-24T00:12:02.717Z,890.29
2017-02-24T00:12:07.067Z,890.33
2017-02-24T00:12:11.587Z,890.36
2017-02-24T00:12:16.092Z,890.32
2017-02-24T00:12:20.745Z,890.35
2017-02-24T00:12:25.395Z,890.32
2017-02-24T00:12:29.926Z,890.31
2017-02-24T00:12:34.574Z,890.32
2017-02-24T00:12:39.079Z,890.32
2017-02-24T00:12:43.724Z,890.3
2017-02-24T00:12:48.375Z,890.29
2017-02-24T00:12:53.033Z,890.31
2017-02-24T00:12:57.704Z,890.33
2017-02-24T00:13:02.559Z,890.29
2017-02-24T00:13:07.202Z,890.31
2017-02-24T00:13:11.845Z,890.33
2017-02-24T00:13:16.049Z,890.32
2017-02-24T00:13:20.746Z,890.3
2017-02-24T00:13:25.270Z,890.32
2017-02-24T00:13:29.919Z,890.29
2017-02-24T00:13:34.563Z,890.32
2017-02-24T00:13:39.209Z,890.33
2017-02-24T00:13:43.724Z,890.32
2017-02-24T00:13:48.369Z,890.32
2017-02-24T00:13:53.005Z,890.33
2017-02-24T00:13:57.660Z,890.29
2017-02-24T00:14:02.329Z,890.29
2017-02-24T00:14:06.810Z,890.33
2017-02-24T00:14:11.214Z,890.33
2017-02-24T00:14:15.713Z,890.31
2017-02-24T00:14:20.345Z,890.31
2017-02-24T00:14:24.824Z,890.31
2017-02-24T00:14:29.503Z,890.31
2017-02-24T00:14:34.169Z,890.27
2017-02-24T00:14:38.809Z,890.29
2017-02-24T00:14:43.461Z,890.27
2017-02-24T00:14:48.109Z,890.29
2017-02-24T00:14:52.604Z,890.28
2017-02-24T00:14:57.238Z,890.29
2017-02-24T00:15:01.905Z,890.3
2017-02-24T00:15:06.535Z,890.26
2017-02-24T00:15:11.199Z,890.26
2017-02-24T00:15:15.554Z,890.27
2017-02-24T00:15:20.181Z,890.23
2017-02-24T00:15:24.841Z,890.26
2017-02-24T00:15:29.510Z,890.24
2017-02-24T00:15:34.194Z,890.25
2017-02-24T00:15:38.860Z,890.26
2017-02-24T00:15:43.501Z,890.26
2017-02-24T00:15:48.156Z,890.21
2017-02-24T00:15:52.800Z,890.22
2017-02-24T00:15:57.467Z,890.24
2017-02-24T00:16:02.401Z,890.25
2017-02-24T00:16:06.895Z,890.24
2017-02-24T00:16:11.547Z,890.23
2017-02-24T00:16:16.074Z,890.2
2017-02-24T00:16:20.700Z,890.24
2017-02-24T00:16:25.369Z,890.26
2017-02-24T00:16:29.718Z,890.25
2017-02-24T00:16:34.378Z,890.25
2017-02-24T00:16:39.026Z,890.22
2017-02-24T00:16:43.527Z,890.22
2017-02-24T00:16:48.196Z,890.26
2017-02-24T00:16:52.840Z,890.21
2017-02-24T00:16:57.486Z,890.24
2017-02-24T00:17:02.080Z,890.24
2017-02-24T00:17:06.567Z,890.23
2017-02-24T00:17:11.128Z,890.22
2017-02-24T00:17:15.480Z,890.2
2017-02-24T00:17:20.130Z,890.19
2017-02-24T00:17:24.781Z,890.19
2017-02-24T00:17:29.431Z,890.18
2017-02-24T00:17:34.082Z,890.2
2017-02-24T00:17:38.770Z,890.17
2017-02-24T00:17:43.407Z,890.17
2017-02-24T00:17:48.061Z,890.15
2017-02-24T00:17:52.715Z,890.16
2017-02-24T00:17:57.232Z,890.15
2017-02-24T00:18:02.154Z,890.16
2017-02-24T00:18:06.657Z,890.12
2017-02-24T00:18:11.146Z,890.11
2017-02-24T00:18:15.644Z,890.14
2017-02-24T00:18:20.304Z,890.05
2017-02-24T00:18:24.961Z,890.08
2017-02-24T00:18:29.609Z,890.13
2017-02-24T00:18:34.256Z,890.12
2017-02-24T00:18:38.908Z,890.1
2017-02-24T00:18:43.566Z,890.07
2017-02-24T00:18:48.193Z,890.11
2017-02-24T00:18:52.832Z,890.09
2017-02-24T00:18:57.488Z,890.1
2017-02-24T00:19:02.436Z,890.1
2017-02-24T00:19:07.071Z,890.13
2017-02-24T00:19:11.715Z,890.13
2017-02-24T00:19:16.365Z,890.1
2017-02-24T00:19:21.019Z,890.12
2017-02-24T00:19:25.664Z,890.1
2017-02-24T00:19:30.310Z,890.11
2017-02-24T00:19:34.812Z,890.07
2017-02-24T00:19:39.457Z,890.09
2017-02-24T00:19:43.978Z,890.08
2017-02-24T00:19:48.625Z,890.1
2017-02-24T00:19:53.276Z,890.12
2017-02-24T00:19:57.917Z,890.01
2017-02-24T00:20:02.855Z,890.08
2017-02-24T00:20:07.204Z,890.09
2017-02-24T00:20:11.872Z,890.07
2017-02-24T00:20:16.243Z,890.09
2017-02-24T00:20:20.907Z,890.08
2017-02-24T00:20:25.556Z,890.1
2017-02-24T00:20:30.187Z,890.04
2017-02-24T00:20:34.840Z,890.02
2017-02-24T00:20:39.482Z,890.06
2017-02-24T00:20:44.107Z,890.04
2017-02-24T00:20:48.753Z,890.07
2017-02-24T00:20:53.395Z,890.05
2017-02-24T00:20:58.070Z,890.02
2017-02-24T00:21:02.775Z,890.07
2017-02-24T00:21:07.280Z,890.08
2017-02-24T00:21:11.786Z,890.09
2017-02-24T00:21:16.291Z,890.06
2017-02-24T00:21:20.942Z,890.03
2017-02-24T00:21:25.583Z,890.04
2017-02-24T00:21:30.232Z,890.03
2017-02-24T00:21:34.873Z,890.04
2017-02-24T00:21:39.376Z,890.03
2017-02-24T00:21:44.010Z,890.02
2017-02-24T00:21:48.655Z,890.02
2017-02-24T00:21:53.310Z,890.04
2017-02-24T00:21:57.970Z,889.99
2017-02-24T00:22:02.625Z,890.01
2017-02-24T00:22:07.009Z,890.01
2017-02-24T00:22:11.363Z,890.01
2017-02-24T00:22:15.711Z,889.99
2017-02-24T00:22:20.353Z,890.01
2017-02-24T00:22:24.866Z,889.98
2017-02-24T00:22:29.493Z,889.99
2017-02-24T00:22:34.137Z,890.02
2017-02-24T00:22:38.779Z,890
2017-02-24T00:22:43.127Z,889.99
2017-02-24T00:22:47.759Z,889.98
2017-02-24T00:22:52.405Z,889.98
2017-02-24T00:22:56.901Z,889.99
2017-02-24T00:23:01.539Z,889.97
2017-02-24T00:23:06.385Z,889.98
2017-02-24T00:23:10.915Z,890.02
2017-02-24T00:23:15.648Z,889.99
2017-02-24T00:23:20.281Z,889.97
2017-02-24T00:23:24.796Z,889.97
2017-02-24T00:23:29.447Z,889.95
2017-02-24T00:23:34.102Z,889.96
2017-02-24T00:23:38.746Z,890
2017-02-24T00:23:43.380Z,890
2017-02-24T00:23:48.028Z,889.99
2017-02-24T00:23:52.675Z,889.95
2017-02-24T00:23:57.319Z,889.97
2017-02-24T00:24:02.072Z,889.97
2017-02-24T00:24:06.693Z,889.97
2017-02-24T00:24:11.026Z,889.94
2017-02-24T00:24:15.371Z,889.95
2017-02-24T00:24:20.013Z,889.96
2017-02-24T00:24:24.657Z,889.96
2017-02-24T00:24:29.294Z,889.95
2017-02-24T00:24:33.940Z,889.92
2017-02-24T00:24:38.576Z,889.94
2017-02-24T00:24:42.919Z,889.92
2017-02-24T00:24:47.585Z,889.96
2017-02-24T00:24:52.273Z,889.94
2017-02-24T00:24:56.934Z,889.9
2017-02-24T00:25:01.589Z,889.93
2017-02-24T00:25:06.103Z,889.94
2017-02-24T00:25:10.609Z,889.94
2017-02-24T00:25:15.250Z,889.93
2017-02-24T00:25:19.884Z,889.9
2017-02-24T00:25:24.522Z,889.91
2017-02-24T00:25:29.175Z,889.86
2017-02-24T00:25:33.809Z,889.85
2017-02-24T00:25:38.453Z,889.9
2017-02-24T00:25:43.141Z,889.93
2017-02-24T00:25:47.782Z,889.88
2017-02-24T00:25:52.412Z,889.9
2017-02-24T00:25:56.914Z,889.86
2017-02-24T00:26:01.559Z,889.92
2017-02-24T00:26:06.404Z,889.9
2017-02-24T00:26:10.752Z,889.86
2017-02-24T00:26:15.106Z,889.93
2017-02-24T00:26:19.752Z,889.93
2017-02-24T00:26:24.405Z,889.91
2017-02-24T00:26:29.097Z,889.91
2017-02-24T00:26:33.742Z,889.95
2017-02-24T00:26:38.389Z,889.92
2017-02-24T00:26:43.037Z,889.94
2017-02-24T00:26:47.689Z,889.95
2017-02-24T00:26:52.339Z,889.92
2017-02-24T00:26:57.032Z,889.92
2017-02-24T00:27:01.991Z,889.89
2017-02-24T00:27:06.326Z,889.85
2017-02-24T00:27:10.703Z,889.88
2017-02-24T00:27:15.201Z,889.91
2017-02-24T00:27:19.904Z,889.89
2017-02-24T00:27:24.404Z,889.88
2017-02-24T00:27:29.048Z,889.84
2017-02-24T00:27:33.708Z,889.83
2017-02-24T00:27:38.214Z,889.82
2017-02-24T00:27:42.739Z,889.75
2017-02-24T00:27:47.379Z,889.82
2017-02-24T00:27:52.013Z,889.79
2017-02-24T00:27:56.663Z,889.7
2017-02-24T00:28:01.308Z,889.7
2017-02-24T00:28:05.829Z,889.67
2017-02-24T00:28:10.362Z,889.7
2017-02-24T00:28:14.850Z,889.62
2017-02-24T00:28:19.509Z,889.61
2017-02-24T00:28:24.154Z,889.53
2017-02-24T00:28:28.806Z,889.5
2017-02-24T00:28:33.476Z,889.48
2017-02-24T00:28:38.115Z,889.43
2017-02-24T00:28:42.797Z,889.41
2017-02-24T00:28:47.442Z,889.34
2017-02-24T00:28:52.081Z,889.33
2017-02-24T00:28:56.735Z,889.26
2017-02-24T00:29:01.387Z,889.18
2017-02-24T00:29:06.264Z,889.15
2017-02-24T00:29:10.909Z,889.09
2017-02-24T00:29:15.256Z,889.07
2017-02-24T00:29:19.898Z,888.98
2017-02-24T00:29:24.531Z,888.97
2017-02-24T00:29:29.175Z,888.87
2017-02-24T00:29:33.814Z,888.78
2017-02-24T00:29:38.296Z,888.71
2017-02-24T00:29:42.795Z,888.67
2017-02-24T00:29:47.442Z,888.63
2017-02-24T00:29:52.101Z,888.56
2017-02-24T00:29:56.756Z,888.51
2017-02-24T00:30:01.410Z,888.45
2017-02-24T00:30:06.046Z,888.37
2017-02-24T00:30:10.539Z,888.3
2017-02-24T00:30:15.206Z,888.27
2017-02-24T00:30:19.900Z,888.19
2017-02-24T00:30:24.390Z,888.12
2017-02-24T00:30:29.035Z,888.05
2017-02-24T00:30:33.544Z,887.99
2017-02-24T00:30:38.180Z,887.94
2017-02-24T00:30:42.840Z,887.88
2017-02-24T00:30:47.484Z,887.82
2017-02-24T00:30:52.132Z,887.74
2017-02-24T00:30:56.781Z,887.7
2017-02-24T00:31:01.292Z,887.59
2017-02-24T00:31:06.037Z,887.54
2017-02-24T00:31:10.524Z,887.47
2017-02-24T00:31:15.049Z,887.44
2017-02-24T00:31:19.723Z,887.39
2017-02-24T00:31:24.373Z,887.29
2017-02-24T00:31:29.012Z,887.27
2017-02-24T00:31:33.506Z,887.19
2017-02-24T00:31:38.145Z,887.14
2017-02-24T00:31:42.623Z,887.03
2017-02-24T00:31:47.295Z,887.06
2017-02-24T00:31:51.939Z,886.99
2017-02-24T00:31:56.582Z,886.91
2017-02-24T00:32:01.216Z,886.87
2017-02-24T00:32:05.887Z,886.82
2017-02-24T00:32:10.284Z,886.79
2017-02-24T00:32:14.805Z,886.72
2017-02-24T00:32:19.430Z,886.64
2017-02-24T00:32:24.089Z,886.64
2017-02-24T00:32:28.723Z,886.53
2017-02-24T00:32:33.393Z,886.52
2017-02-24T00:32:37.880Z,886.44
2017-02-24T00:32:42.279Z,886.38
2017-02-24T00:32:46.918Z,886.33
2017-02-24T00:32:51.561Z,886.28
2017-02-24T00:32:56.215Z,886.23
2017-02-24T00:33:00.879Z,886.14
2017-02-24T00:33:05.686Z,886.09
2017-02-24T00:33:10.031Z,886.06
2017-02-24T00:33:14.373Z,885.97
2017-02-24T00:33:18.999Z,885.95
2017-02-24T00:33:23.488Z,885.91
2017-02-24T00:33:28.114Z,885.8
2017-02-24T00:33:32.753Z,885.75
2017-02-24T00:33:37.422Z,885.69
2017-02-24T00:33:42.083Z,885.68
2017-02-24T00:33:46.722Z,885.62
2017-02-24T00:33:51.370Z,885.55
2017-02-24T00:33:56.020Z,885.52
2017-02-24T00:34:00.669Z,885.46
2017-02-24T00:34:05.167Z,885.43
2017-02-24T00:34:09.655Z,885.38
2017-02-24T00:34:14.304Z,885.25
2017-02-24T00:34:18.819Z,885.26
2017-02-24T00:34:23.328Z,885.19
2017-02-24T00:34:27.966Z,885.16
2017-02-24T00:34:32.592Z,885.01
2017-02-24T00:34:37.086Z,884.99
2017-02-24T00:34:41.586Z,884.92
2017-02-24T00:34:46.219Z,884.91
2017-02-24T00:34:50.891Z,884.8
2017-02-24T00:34:55.543Z,884.79
2017-02-24T00:35:00.185Z,884.7
2017-02-24T00:35:05.183Z,884.62
2017-02-24T00:35:09.527Z,884.61
2017-02-24T00:35:14.014Z,884.55
2017-02-24T00:35:18.669Z,884.47
2017-02-24T00:35:23.320Z,884.38
2017-02-24T00:35:27.966Z,884.33
2017-02-24T00:35:32.614Z,884.19
2017-02-24T00:35:37.256Z,884.17
2017-02-24T00:35:41.747Z,884.13
2017-02-24T00:35:46.245Z,884.1
2017-02-24T00:35:50.909Z,884
2017-02-24T00:35:55.538Z,883.95
2017-02-24T00:36:00.185Z,883.85
2017-02-24T00:36:05.038Z,883.74
2017-02-24T00:36:09.686Z,883.7
2017-02-24T00:36:14.340Z,883.63
2017-02-24T00:36:18.967Z,883.58
2017-02-24T00:36:23.603Z,883.51
2017-02-24T00:36:28.261Z,883.36
2017-02-24T00:36:32.901Z,883.27
2017-02-24T00:36:37.536Z,883.28
2017-02-24T00:36:42.165Z,883.21
2017-02-24T00:36:46.806Z,883.1
2017-02-24T00:36:51.462Z,883.02
2017-02-24T00:36:56.124Z,882.96
2017-02-24T00:37:00.775Z,882.85
2017-02-24T00:37:05.278Z,882.78
2017-02-24T00:37:09.807Z,882.71
2017-02-24T00:37:14.316Z,882.65
2017-02-24T00:37:18.951Z,882.55
2017-02-24T00:37:23.600Z,882.49
2017-02-24T00:37:28.243Z,882.39
2017-02-24T00:37:32.896Z,882.32
2017-02-24T00:37:37.540Z,882.24
2017-02-24T00:37:42.038Z,882.13
2017-02-24T00:37:46.680Z,882.08
2017-02-24T00:37:51.337Z,882.03
2017-02-24T00:37:55.970Z,881.91
2017-02-24T00:38:00.596Z,881.87
2017-02-24T00:38:04.948Z,881.78
2017-02-24T00:38:09.336Z,881.72
2017-02-24T00:38:13.843Z,881.61
2017-02-24T00:38:18.480Z,881.59
2017-02-24T00:38:23.133Z,881.47
2017-02-24T00:38:27.779Z,881.42
2017-02-24T00:38:32.426Z,881.4
2017-02-24T00:38:37.067Z,881.3
2017-02-24T00:38:41.701Z,881.24
2017-02-24T00:38:46.184Z,881.17
2017-02-24T00:38:50.832Z,881.09
2017-02-24T00:38:55.483Z,881.06
2017-02-24T00:39:00.128Z,880.97
2017-02-24T00:39:04.761Z,880.92
2017-02-24T00:39:09.258Z,880.84
2017-02-24T00:39:13.626Z,880.78
2017-02-24T00:39:18.275Z,880.65
2017-02-24T00:39:22.925Z,880.63
2017-02-24T00:39:27.276Z,880.58
2017-02-24T00:39:31.937Z,880.53
2017-02-24T00:39:36.576Z,880.39
2017-02-24T00:39:41.066Z,880.4
2017-02-24T00:39:45.569Z,880.37
2017-02-24T00:39:50.215Z,880.3
2017-02-24T00:39:54.863Z,880.21
2017-02-24T00:39:59.527Z,880.18
2017-02-24T00:40:04.311Z,880.12
2017-02-24T00:40:08.518Z,880.09
2017-02-24T00:40:13.169Z,880.02
2017-02-24T00:40:17.674Z,879.95
2017-02-24T00:40:22.332Z,879.88
2017-02-24T00:40:26.975Z,879.84
2017-02-24T00:40:31.614Z,879.8
2017-02-24T00:40:36.269Z,879.76
2017-02-24T00:40:40.650Z,879.71
2017-02-24T00:40:44.992Z,879.62
2017-02-24T00:40:49.641Z,879.6
2017-02-24T00:40:54.297Z,879.54
2017-02-24T00:40:58.926Z,879.49
2017-02-24T00:41:03.588Z,879.46
2017-02-24T00:41:08.104Z,879.39
2017-02-24T00:41:12.759Z,879.36
2017-02-24T00:41:17.090Z,879.3
2017-02-24T00:41:21.753Z,879.26
2017-02-24T00:41:26.401Z,879.21
2017-02-24T00:41:31.040Z,879.14
2017-02-24T00:41:35.677Z,879.12
2017-02-24T00:41:40.331Z,879.02
2017-02-24T00:41:44.819Z,879.03
2017-02-24T00:41:49.456Z,878.95
2017-02-24T00:41:54.130Z,878.92
2017-02-24T00:41:58.777Z,878.88
2017-02-24T00:42:03.406Z,878.82
2017-02-24T00:42:07.757Z,878.78
2017-02-24T00:42:12.404Z,878.71
2017-02-24T00:42:16.884Z,878.72
2017-02-24T00:42:21.542Z,878.71
2017-02-24T00:42:26.189Z,878.63
2017-02-24T00:42:30.843Z,878.63
2017-02-24T00:42:35.489Z,878.6
2017-02-24T00:42:39.996Z,878.56
2017-02-24T00:42:44.500Z,878.53
2017-02-24T00:42:49.159Z,878.42
2017-02-24T00:42:53.811Z,878.4
2017-02-24T00:42:58.467Z,878.39
2017-02-24T00:43:02.979Z,878.36
2017-02-24T00:43:07.633Z,878.31
2017-02-24T00:43:12.127Z,878.31
2017-02-24T00:43:16.828Z,878.26
2017-02-24T00:43:21.473Z,878.14
2017-02-24T00:43:26.104Z,878.07
2017-02-24T00:43:30.749Z,878.03
2017-02-24T00:43:35.400Z,878.08
2017-02-24T00:43:40.059Z,878.03
2017-02-24T00:43:44.539Z,878.01
2017-02-24T00:43:49.187Z,878
2017-02-24T00:43:53.816Z,877.96
2017-02-24T00:43:58.470Z,877.89
2017-02-24T00:44:03.126Z,877.85
2017-02-24T00:44:07.649Z,877.89
2017-02-24T00:44:11.853Z,877.81
2017-02-24T00:44:16.486Z,877.8
2017-02-24T00:44:21.149Z,877.79
2017-02-24T00:44:25.633Z,877.74
2017-02-24T00:44:30.271Z,877.69
2017-02-24T00:44:34.918Z,877.68
2017-02-24T00:44:39.537Z,877.7
2017-02-24T00:44:44.036Z,877.65
2017-02-24T00:44:48.684Z,877.64
2017-02-24T00:44:53.338Z,877.63
2017-02-24T00:44:58.014Z,877.59
2017-02-24T00:45:02.652Z,877.57
2017-02-24T00:45:07.304Z,877.56
2017-02-24T00:45:11.805Z,877.51
2017-02-24T00:45:16.320Z,877.51
2017-02-24T00:45:20.855Z,877.5
2017-02-24T00:45:25.376Z,877.46
2017-02-24T00:45:30.013Z,877.44
2017-02-24T00:45:34.653Z,877.42
2017-02-24T00:45:39.167Z,877.41
2017-02-24T00:45:43.828Z,877.37
2017-02-24T00:45:48.462Z,877.35
2017-02-24T00:45:53.112Z,877.33
2017-02-24T00:45:57.754Z,877.29
2017-02-24T00:46:02.395Z,877.24
2017-02-24T00:46:06.746Z,877.23
2017-02-24T00:46:11.082Z,877.23
2017-02-24T00:46:15.418Z,877.21
2017-02-24T00:46:20.080Z,877.19
2017-02-24T00:46:24.730Z,877.17
2017-02-24T00:46:29.368Z,877.14
2017-02-24T00:46:34.008Z,877.1
2017-02-24T00:46:38.690Z,877.04
2017-02-24T00:46:43.205Z,877.05
2017-02-24T00:46:47.693Z,877.04
2017-02-24T00:46:52.332Z,877.02
2017-02-24T00:46:56.969Z,877.02
2017-02-24T00:47:01.613Z,877.01
2017-02-24T00:47:06.258Z,876.97
2017-02-24T00:47:10.891Z,876.94
2017-02-24T00:47:15.404Z,876.92
2017-02-24T00:47:20.070Z,876.89
2017-02-24T00:47:24.706Z,876.88
2017-02-24T00:47:29.347Z,876.83
2017-02-24T00:47:33.994Z,876.84
2017-02-24T00:47:38.479Z,876.79
2017-02-24T00:47:43.109Z,876.78
2017-02-24T00:47:47.768Z,876.74
2017-02-24T00:47:52.411Z,876.73
2017-02-24T00:47:57.074Z,876.71
2017-02-24T00:48:02.004Z,876.65
2017-02-24T00:48:06.498Z,876.69
2017-02-24T00:48:11.027Z,876.68
2017-02-24T00:48:15.362Z,876.64
2017-02-24T00:48:21.066Z,876.62
2017-02-24T00:48:25.707Z,876.58
2017-02-24T00:48:30.335Z,876.6
2017-02-24T00:48:34.970Z,876.58
2017-02-24T00:48:39.316Z,876.54
2017-02-24T00:48:43.969Z,876.51
2017-02-24T00:48:48.632Z,876.53
2017-02-24T00:48:53.273Z,876.49
2017-02-24T00:48:57.918Z,876.48
2017-02-24T00:49:02.714Z,876.49
2017-02-24T00:49:07.360Z,876.46
2017-02-24T00:49:11.698Z,876.47
2017-02-24T00:49:16.194Z,876.41
2017-02-24T00:49:20.679Z,876.43
2017-02-24T00:49:25.175Z,876.39
2017-02-24T00:49:29.818Z,876.39
2017-02-24T00:49:34.481Z,876.39
2017-02-24T00:49:39.115Z,876.36
2017-02-24T00:49:43.610Z,876.37
2017-02-24T00:49:48.262Z,876.33
2017-02-24T00:49:52.909Z,876.31
2017-02-24T00:49:57.403Z,876.29
2017-02-24T00:50:02.046Z,876.28
2017-02-24T00:50:06.387Z,876.26
2017-02-24T00:50:10.740Z,876.27
2017-02-24T00:50:15.392Z,876.3
2017-02-24T00:50:20.030Z,876.21
2017-02-24T00:50:24.679Z,876.19
2017-02-24T00:50:29.310Z,876.24
2017-02-24T00:50:33.940Z,876.21
2017-02-24T00:50:38.586Z,876.2
2017-02-24T00:50:43.236Z,876.17
2017-02-24T00:50:47.871Z,876.15
2017-02-24T00:50:52.521Z,876.16
2017-02-24T00:50:57.182Z,876.12
2017-02-24T00:51:01.964Z,876.11
2017-02-24T00:51:06.606Z,876.06
2017-02-24T00:51:11.274Z,876.09
2017-02-24T00:51:15.785Z,876.08
2017-02-24T00:51:20.476Z,876.06
2017-02-24T00:51:24.957Z,876.07
2017-02-24T00:51:29.591Z,876.05
2017-02-24T00:51:34.240Z,876.05
2017-02-24T00:51:38.719Z,876.01
2017-02-24T00:51:43.223Z,876
2017-02-24T00:51:47.876Z,876
2017-02-24T00:51:52.524Z,875.97
2017-02-24T00:51:57.151Z,875.97
2017-02-24T00:52:01.806Z,875.98
2017-02-24T00:52:06.498Z,875.95
2017-02-24T00:52:10.998Z,875.94
2017-02-24T00:52:15.508Z,875.94
2017-02-24T00:52:20.167Z,875.91
2017-02-24T00:52:24.817Z,875.91
2017-02-24T00:52:29.460Z,875.9
2017-02-24T00:52:34.098Z,875.89
2017-02-24T00:52:38.727Z,875.9
2017-02-24T00:52:43.259Z,875.85
2017-02-24T00:52:47.880Z,875.86
2017-02-24T00:52:52.518Z,875.8
2017-02-24T00:52:57.178Z,875.82
2017-02-24T00:53:02.065Z,875.81
2017-02-24T00:53:06.727Z,875.8
2017-02-24T00:53:11.228Z,875.79
2017-02-24T00:53:15.575Z,875.79
2017-02-24T00:53:20.224Z,875.71
2017-02-24T00:53:25.155Z,875.76
2017-02-24T00:53:29.811Z,875.71
2017-02-24T00:53:34.456Z,875.71
2017-02-24T00:53:38.959Z,875.71
2017-02-24T00:53:43.434Z,875.73
2017-02-24T00:53:48.094Z,875.71
2017-02-24T00:53:52.715Z,875.68
2017-02-24T00:53:57.238Z,875.66
2017-02-24T00:54:01.878Z,875.66
2017-02-24T00:54:06.517Z,875.66
2017-02-24T00:54:11.016Z,875.64
2017-02-24T00:54:15.367Z,875.65
2017-02-24T00:54:20.024Z,875.62
2017-02-24T00:54:24.672Z,875.59
2017-02-24T00:54:29.369Z,875.59
2017-02-24T00:54:34.013Z,875.61
2017-02-24T00:54:38.505Z,875.57
2017-02-24T00:54:42.994Z,875.56
2017-02-24T00:54:47.641Z,875.55
2017-02-24T00:54:52.286Z,875.55
2017-02-24T00:54:56.929Z,875.55
2017-02-24T00:55:01.597Z,875.53
2017-02-24T00:55:06.226Z,875.53
2017-02-24T00:55:10.747Z,875.49
2017-02-24T00:55:15.249Z,875.45
2017-02-24T00:55:19.908Z,875.49
2017-02-24T00:55:24.414Z,875.45
2017-02-24T00:55:29.051Z,875.45
2017-02-24T00:55:33.698Z,875.42
2017-02-24T00:55:38.354Z,875.43
2017-02-24T00:55:42.991Z,875.43
2017-02-24T00:55:47.629Z,875.4
2017-02-24T00:55:52.261Z,875.39
2017-02-24T00:55:56.906Z,875.38
2017-02-24T00:56:01.427Z,875.37
2017-02-24T00:56:06.071Z,875.3
2017-02-24T00:56:10.268Z,875.34
2017-02-24T00:56:14.602Z,875.35
2017-02-24T00:56:19.239Z,875.32
2017-02-24T00:56:23.893Z,875.3
2017-02-24T00:56:28.539Z,875.32
2017-02-24T00:56:33.181Z,875.32
2017-02-24T00:56:37.831Z,875.32
2017-02-24T00:56:42.462Z,875.25
2017-02-24T00:56:47.113Z,875.28
2017-02-24T00:56:51.769Z,875.27
2017-02-24T00:56:56.418Z,875.25
2017-02-24T00:57:01.066Z,875.27
2017-02-24T00:57:05.944Z,875.27
2017-02-24T00:57:10.445Z,875.25
2017-02-24T00:57:14.937Z,875.23
2017-02-24T00:57:19.431Z,875.23
2017-02-24T00:57:24.076Z,875.22
2017-02-24T00:57:28.712Z,875.16
2017-02-24T00:57:33.348Z,875.17
2017-02-24T00:57:37.985Z,875.18